Time;durP1;ratioP1;P1;durP2;ratioP2;P2;SDS_P1;SDS_P2;PMS_P1;PMS_P2;Temp;Humidity;BMP_temperature;BMP_pressure;BME280_temperature;BME280_humidity;BME280_pressure;Samples;Min_cycle;Max_cycle;Signal;HPM_P1;HPM_P2
2023/10/08 00:01:28;;;;;;;2.85;0.20;;;13.80;99.90;;;;;;5055043;28;20041;-78
2023/10/08 00:03:58;;;;;;;1.27;0.20;;;13.70;99.90;;;;;;5055035;28;20048;-78
2023/10/08 00:06:24;;;;;;;5.78;0.65;;;13.80;99.90;;;;;;5056770;28;20045;-78
2023/10/08 00:08:50;;;;;;;4.10;0.30;;;13.80;99.90;;;;;;5054983;28;20091;-78
2023/10/08 00:11:17;;;;;;;2.33;0.40;;;13.90;99.90;;;;;;5054684;28;20484;-78
2023/10/08 00:13:43;;;;;;;6.53;0.63;;;13.90;99.90;;;;;;5054592;28;20098;-78
2023/10/08 00:16:15;;;;;;;3.35;0.35;;;13.90;99.90;;;;;;5054698;28;20439;-78
2023/10/08 00:18:50;;;;;;;2.72;0.40;;;13.80;99.90;;;;;;5054684;28;20080;-78
2023/10/08 00:21:27;;;;;;;2.83;1.05;;;13.80;99.90;;;;;;5054720;28;20116;-78
2023/10/08 00:23:55;;;;;;;2.80;0.50;;;13.80;99.90;;;;;;5054719;28;20064;-77
2023/10/08 00:26:30;;;;;;;8.60;0.55;;;13.70;99.90;;;;;;5054792;28;20049;-78
2023/10/08 00:28:59;;;;;;;5.47;0.60;;;13.80;99.90;;;;;;5055722;28;20507;-78
2023/10/08 00:31:30;;;;;;;5.85;0.70;;;13.90;99.90;;;;;;5054760;28;20111;-77
2023/10/08 00:33:56;;;;;;;4.43;0.70;;;13.80;99.90;;;;;;5054409;28;20056;-78
2023/10/08 00:36:23;;;;;;;3.65;0.68;;;13.80;99.90;;;;;;5054229;28;20431;-78
2023/10/08 00:38:53;;;;;;;3.72;0.60;;;13.80;99.90;;;;;;5054028;28;20182;-77
2023/10/08 00:41:21;;;;;;;5.22;0.70;;;13.80;99.90;;;;;;5054308;28;20064;-78
2023/10/08 00:43:48;;;;;;;8.90;0.93;;;13.80;99.90;;;;;;5054502;28;20045;-77
2023/10/08 00:46:26;;;;;;;9.52;0.95;;;13.80;99.90;;;;;;5054468;28;20029;-78
2023/10/08 00:48:54;;;;;;;8.30;1.00;;;13.80;99.90;;;;;;5055394;28;20051;-78
2023/10/08 00:51:33;;;;;;;6.93;0.85;;;13.80;99.90;;;;;;5054376;28;20483;-78
2023/10/08 00:54:10;;;;;;;7.03;0.85;;;13.90;99.90;;;;;;5054070;28;20068;-77
2023/10/08 00:59:21;;;;;;;5.97;1.55;;;13.80;99.90;;;;;;5054221;28;20132;-78
2023/10/08 01:01:51;;;;;;;6.65;0.93;;;13.80;99.90;;;;;;5053877;28;20049;-78
2023/10/08 01:04:27;;;;;;;5.25;1.15;;;13.80;99.90;;;;;;5054029;28;20086;-77
2023/10/08 01:07:12;;;;;;;9.05;0.95;;;13.70;99.90;;;;;;5055082;28;20044;-77
2023/10/08 01:09:42;;;;;;;8.95;1.00;;;13.70;99.90;;;;;;5053661;28;20037;-77
2023/10/08 01:12:29;;;;;;;9.05;2.28;;;13.80;99.90;;;;;;5053728;28;20049;-78
2023/10/08 01:14:55;;;;;;;8.70;1.10;;;13.80;99.90;;;;;;5053425;28;20064;-78
2023/10/08 01:17:25;;;;;;;6.35;1.25;;;13.80;99.90;;;;;;5054635;28;20097;-78
2023/10/08 01:19:56;;;;;;;6.40;1.00;;;13.80;99.90;;;;;;5053634;28;20112;-77
2023/10/08 01:22:22;;;;;;;8.02;1.40;;;13.80;99.90;;;;;;5053503;28;20044;-78
2023/10/08 01:24:51;;;;;;;9.00;1.65;;;13.80;99.90;;;;;;5054748;28;20045;-77
2023/10/08 01:27:23;;;;;;;5.15;0.90;;;13.80;99.90;;;;;;5053375;28;20055;-77
2023/10/08 01:29:52;;;;;;;8.52;1.10;;;13.80;99.90;;;;;;5053211;28;20149;-77
2023/10/08 01:32:20;;;;;;;8.80;1.40;;;13.80;99.90;;;;;;5052972;28;20047;-77
2023/10/08 01:34:46;;;;;;;8.30;1.10;;;13.80;99.90;;;;;;5053060;28;20053;-77
2023/10/08 01:37:17;;;;;;;6.53;1.10;;;13.80;99.90;;;;;;5053160;28;20048;-78
2023/10/08 01:39:52;;;;;;;7.15;1.40;;;13.80;99.90;;;;;;5053089;28;20151;-77
2023/10/08 01:42:20;;;;;;;9.60;1.08;;;13.80;99.90;;;;;;5053082;28;20378;-77
2023/10/08 01:44:50;;;;;;;9.77;1.25;;;13.80;99.90;;;;;;5052914;28;20048;-77
2023/10/08 01:47:16;;;;;;;5.97;0.77;;;13.80;99.90;;;;;;5053151;28;20094;-77
2023/10/08 01:49:49;;;;;;;9.50;1.27;;;13.80;99.90;;;;;;5052912;28;20052;-78
2023/10/08 01:52:21;;;;;;;10.50;1.38;;;13.80;99.90;;;;;;5053168;28;20094;-77
2023/10/08 01:54:47;;;;;;;5.95;1.45;;;13.80;99.90;;;;;;5052866;28;20128;-77
2023/10/08 01:57:14;;;;;;;7.93;1.10;;;13.70;99.90;;;;;;5053866;28;20370;-77
2023/10/08 01:59:40;;;;;;;8.30;1.42;;;13.70;99.90;;;;;;5052681;28;20476;-77
2023/10/08 02:02:06;;;;;;;6.95;1.00;;;13.70;99.90;;;;;;5052665;28;20132;-77
2023/10/08 02:04:35;;;;;;;14.73;1.20;;;13.60;99.90;;;;;;5052540;28;20580;-77
2023/10/08 02:07:07;;;;;;;5.38;1.02;;;13.60;99.90;;;;;;5052648;28;20049;-77
2023/10/08 02:09:34;;;;;;;8.32;0.90;;;13.60;99.90;;;;;;5053865;28;20055;-77
2023/10/08 02:12:00;;;;;;;6.68;0.95;;;13.60;99.90;;;;;;5053832;28;20037;-77
2023/10/08 02:14:28;;;;;;;9.32;0.98;;;13.60;99.90;;;;;;5052499;28;20489;-77
2023/10/08 02:16:56;;;;;;;6.30;0.93;;;13.60;99.90;;;;;;5052395;28;20094;-77
2023/10/08 02:19:26;;;;;;;9.65;2.13;;;13.60;99.90;;;;;;5053823;28;20052;-77
2023/10/08 02:21:56;;;;;;;12.27;1.52;;;13.60;99.90;;;;;;5053510;28;20041;-77
2023/10/08 02:24:25;;;;;;;12.10;1.60;;;13.60;99.90;;;;;;5052486;28;20440;-77
2023/10/08 02:26:52;;;;;;;14.85;1.70;;;13.60;99.90;;;;;;5052278;28;20041;-77
2023/10/08 02:29:18;;;;;;;9.73;1.20;;;13.60;99.90;;;;;;5052190;28;20048;-77
2023/10/08 02:31:44;;;;;;;9.20;1.52;;;13.70;99.90;;;;;;5052415;28;20123;-77
2023/10/08 02:34:12;;;;;;;12.30;1.80;;;13.60;99.90;;;;;;5052416;28;20183;-77
2023/10/08 02:36:40;;;;;;;9.98;1.73;;;13.60;99.90;;;;;;5052469;28;20068;-77
2023/10/08 02:39:16;;;;;;;10.07;2.00;;;13.60;99.90;;;;;;5053287;28;20049;-77
2023/10/08 02:41:43;;;;;;;9.60;1.42;;;13.70;99.90;;;;;;5052055;28;20044;-77
2023/10/08 02:44:13;;;;;;;12.48;2.10;;;13.70;99.90;;;;;;5052381;28;20045;-77
2023/10/08 02:46:47;;;;;;;13.45;1.85;;;13.70;99.90;;;;;;5052039;28;20037;-77
2023/10/08 02:49:22;;;;;;;13.43;1.75;;;13.60;99.90;;;;;;5052109;28;20048;-77
2023/10/08 02:51:51;;;;;;;8.68;1.63;;;13.60;99.90;;;;;;5052019;28;20127;-77
2023/10/08 02:54:23;;;;;;;13.60;2.10;;;13.70;99.90;;;;;;5052148;28;20057;-77
2023/10/08 02:56:55;;;;;;;14.67;1.60;;;13.60;99.90;;;;;;5053412;28;20044;-77
2023/10/08 02:59:22;;;;;;;9.05;1.63;;;13.60;99.90;;;;;;5052157;28;20279;-77
2023/10/08 03:01:49;;;;;;;12.63;1.70;;;13.60;99.90;;;;;;5051810;28;20056;-77
2023/10/08 03:04:18;;;;;;;12.60;1.70;;;13.60;99.90;;;;;;5045165;28;20053;-77
2023/10/08 03:06:55;;;;;;;11.63;1.27;;;13.60;99.90;;;;;;5032289;28;20520;-77
2023/10/08 03:09:23;;;;;;;9.48;1.30;;;13.70;99.90;;;;;;5033399;28;20037;-77
2023/10/08 03:11:50;;;;;;;10.45;1.35;;;13.70;99.90;;;;;;5032290;28;20041;-77
2023/10/08 03:14:23;;;;;;;9.20;1.70;;;13.70;99.90;;;;;;5033203;28;20049;-77
2023/10/08 03:16:49;;;;;;;;;;;13.70;99.90;;;;;;5032355;28;20531;-77
2023/10/08 03:19:18;;;;;;;12.27;2.30;;;13.70;99.90;;;;;;5032106;28;19917;-77
2023/10/08 03:21:55;;;;;;;6.90;0.98;;;13.70;99.90;;;;;;5031866;28;20095;-77
2023/10/08 03:27:41;;;;;;;8.00;1.23;;;13.80;99.90;;;;;;5031838;28;20061;-77
2023/10/08 03:29:54;;;;;;;11.57;1.55;;;13.80;99.90;;;;;;5028985;28;20111;-77
2023/10/08 03:32:26;;;;;;;6.72;1.27;;;13.80;99.90;;;;;;5031566;28;20452;-77
2023/10/08 03:34:54;;;;;;;7.37;1.30;;;13.80;99.90;;;;;;5031869;28;20045;-77
2023/10/08 03:37:29;;;;;;;9.18;1.42;;;13.80;99.90;;;;;;5031689;28;20046;-77
2023/10/08 03:40:01;;;;;;;8.55;1.58;;;13.80;99.90;;;;;;5031480;28;20057;-77
2023/10/08 03:42:33;;;;;;;6.93;1.42;;;13.90;99.90;;;;;;5032322;28;20037;-77
2023/10/08 03:45:09;;;;;;;6.20;1.20;;;13.90;99.90;;;;;;5031821;28;20081;-77
2023/10/08 03:47:38;;;;;;;6.47;1.10;;;13.90;99.90;;;;;;5033015;28;20038;-77
2023/10/08 03:50:09;;;;;;;9.98;1.00;;;13.90;99.90;;;;;;5031444;28;20474;-77
2023/10/08 03:52:38;;;;;;;7.78;1.13;;;13.90;99.90;;;;;;5031879;28;20041;-78
2023/10/08 03:55:13;;;;;;;10.90;2.03;;;13.90;99.90;;;;;;5034107;28;20057;-78
2023/10/08 03:57:42;;;;;;;10.02;1.13;;;13.90;99.90;;;;;;5035449;28;20095;-78
2023/10/08 04:00:18;;;;;;;14.38;1.73;;;13.90;99.90;;;;;;5034928;28;20045;-78
2023/10/08 04:02:55;;;;;;;10.13;1.83;;;13.90;99.90;;;;;;5035049;28;20045;-78
2023/10/08 04:05:31;;;;;;;10.00;1.75;;;13.90;99.90;;;;;;5035027;28;20501;-77
2023/10/08 04:13:09;;;;;;;8.00;1.13;;;14.00;99.90;;;;;;5035019;28;20512;-78
2023/10/08 04:15:41;;;;;;;9.07;1.42;;;14.00;99.90;;;;;;5035041;28;20126;-77
2023/10/08 04:18:11;;;;;;;12.20;1.70;;;14.00;99.90;;;;;;5035958;28;20125;-78
2023/10/08 04:20:58;;;;;;;8.90;1.92;;;14.00;99.90;;;;;;5034989;28;20052;-77
2023/10/08 04:23:24;;;;;;;6.45;1.23;;;14.10;99.90;;;;;;5034871;28;20056;-78
2023/10/08 04:25:54;;;;;;;6.00;1.10;;;14.00;99.90;;;;;;5034553;28;20045;-77
2023/10/08 04:28:20;;;;;;;8.30;1.00;;;14.10;99.90;;;;;;5035854;28;20049;-78
2023/10/08 04:30:50;;;;;;;6.47;0.88;;;14.10;99.90;;;;;;5035996;28;20095;-77
2023/10/08 04:33:16;;;;;;;4.22;0.90;;;14.00;99.90;;;;;;5035680;28;20042;-78
2023/10/08 04:35:51;;;;;;;7.15;1.27;;;14.00;99.90;;;;;;5034336;28;20045;-78
2023/10/08 04:38:21;;;;;;;9.27;1.10;;;14.00;99.90;;;;;;5034669;28;20052;-78
2023/10/08 04:40:51;;;;;;;6.05;1.10;;;14.00;99.90;;;;;;5034266;28;20493;-78
2023/10/08 04:43:25;;;;;;;10.18;1.30;;;14.00;99.90;;;;;;5035587;28;20485;-78
2023/10/08 04:45:57;;;;;;;7.03;1.25;;;14.00;99.90;;;;;;5034583;28;20052;-78
2023/10/08 04:48:24;;;;;;;6.07;0.90;;;13.90;99.90;;;;;;5034546;28;20053;-78
2023/10/08 04:51:02;;;;;;;5.82;1.08;;;13.90;99.90;;;;;;5034473;28;20049;-78
2023/10/08 04:53:40;;;;;;;9.90;1.88;;;13.90;99.90;;;;;;5034615;28;20046;-78
2023/10/08 04:56:16;;;;;;;11.85;1.40;;;13.80;99.90;;;;;;5034269;28;20489;-78
2023/10/08 04:58:46;;;;;;;6.03;1.13;;;13.90;99.90;;;;;;5035207;28;20049;-78
2023/10/08 05:01:17;;;;;;;8.73;1.17;;;13.80;99.90;;;;;;5033892;28;20091;-77
2023/10/08 05:30:28;;;;;;;14.95;1.42;;;13.60;99.90;;;;;;5033703;28;20053;-78
2023/10/08 05:35:38;;;;;;;7.32;1.15;;;13.70;99.90;;;;;;5033350;28;20111;-78
2023/10/08 05:38:13;;;;;;;7.93;1.40;;;13.70;99.90;;;;;;5033394;28;20057;-78
2023/10/08 05:41:04;;;;;;;8.82;1.20;;;13.60;99.90;;;;;;5032969;28;20057;-78
2023/10/08 05:49:01;;;;;;;7.22;1.48;;;13.60;99.90;;;;;;5034025;28;20571;-78
2023/10/08 06:02:28;;;;;;;5.75;1.00;;;13.70;99.90;;;;;;5034144;28;20053;-78
2023/10/08 06:13:10;;;;;;;6.22;1.25;;;13.70;99.90;;;;;;5032814;28;20492;-78
2023/10/08 06:18:16;;;;;;;5.22;0.90;;;13.80;99.90;;;;;;5033540;28;20057;-78
2023/10/08 06:20:45;;;;;;;10.80;1.77;;;13.80;99.90;;;;;;5033824;28;20092;-78
2023/10/08 06:23:22;;;;;;;8.23;1.17;;;13.80;99.90;;;;;;5033746;28;20540;-78
2023/10/08 06:28:38;;;;;;;5.93;1.17;;;13.80;99.90;;;;;;5033661;28;20065;-77
2023/10/08 06:31:11;;;;;;;6.13;1.30;;;13.70;99.90;;;;;;5033432;28;20053;-78
2023/10/08 06:33:38;;;;;;;9.40;1.50;;;13.70;99.90;;;;;;5032201;28;20049;-78
2023/10/08 06:38:38;;;;;;;8.55;1.10;;;13.70;99.90;;;;;;5033613;28;20037;-78
2023/10/08 06:41:09;;;;;;;9.50;1.67;;;13.70;99.90;;;;;;5032201;28;20053;-78
2023/10/08 06:43:38;;;;;;;7.15;1.35;;;13.70;99.90;;;;;;5032098;28;20413;-78
2023/10/08 06:46:07;;;;;;;8.98;1.17;;;13.70;99.90;;;;;;5032611;28;20049;-78
2023/10/08 06:48:34;;;;;;;8.45;1.63;;;13.70;99.90;;;;;;5031969;28;20052;-78
2023/10/08 06:51:07;;;;;;;5.78;1.65;;;13.60;99.90;;;;;;5033263;28;20477;-78
2023/10/08 06:53:38;;;;;;;8.80;2.13;;;13.70;99.90;;;;;;5032195;28;20042;-78
2023/10/08 06:56:04;;;;;;;7.03;1.27;;;13.60;99.90;;;;;;5033557;28;20056;-78
2023/10/08 06:58:33;;;;;;;11.23;1.73;;;13.60;99.90;;;;;;5033243;28;20049;-78
2023/10/08 07:01:04;;;;;;;8.75;1.30;;;13.70;99.90;;;;;;5032012;28;20045;-77
2023/10/08 07:03:31;;;;;;;10.15;1.30;;;13.60;99.90;;;;;;5033517;28;20046;-78
2023/10/08 07:06:02;;;;;;;8.93;1.20;;;13.60;99.90;;;;;;5032038;28;20072;-78
2023/10/08 07:08:32;;;;;;;5.88;1.25;;;13.70;99.90;;;;;;5032212;28;20103;-78
2023/10/08 07:11:01;;;;;;;12.23;1.40;;;13.70;99.90;;;;;;5032173;28;20056;-78
2023/10/08 07:13:29;;;;;;;9.18;1.38;;;13.70;99.90;;;;;;5031932;28;20473;-78
2023/10/08 07:15:58;;;;;;;7.93;1.10;;;13.70;99.90;;;;;;5037144;28;20100;-78
2023/10/08 07:18:27;;;;;;;11.25;1.33;;;13.70;99.90;;;;;;5038073;28;20050;-78
2023/10/08 07:20:54;;;;;;;8.40;1.63;;;13.70;99.90;;;;;;5031509;28;20053;-76
2023/10/08 07:23:33;;;;;;;11.50;1.80;;;13.70;99.90;;;;;;5033004;28;20049;-78
2023/10/08 07:26:13;;;;;;;9.30;1.92;;;13.60;99.90;;;;;;5031795;28;20128;-76
2023/10/08 07:28:41;;;;;;;10.43;2.22;;;13.70;99.90;;;;;;5032467;28;20068;-77
2023/10/08 07:31:24;;;;;;;10.98;1.85;;;13.80;99.90;;;;;;5035301;28;20928;-77
2023/10/08 07:36:39;;;;;;;11.05;1.67;;;13.80;99.90;;;;;;5036396;28;20092;-78
2023/10/08 07:39:08;;;;;;;16.98;2.90;;;13.70;99.90;;;;;;5036209;28;20057;-78
2023/10/08 07:41:35;;;;;;;14.00;1.90;;;13.70;99.90;;;;;;5035205;28;20057;-78
2023/10/08 07:44:01;;;;;;;7.93;1.38;;;13.70;99.90;;;;;;5035024;28;20481;-78
2023/10/08 07:46:26;;;;;;;7.03;1.20;;;13.70;99.90;;;;;;5036631;28;20043;-78
2023/10/08 07:48:58;;;;;;;8.57;1.60;;;13.80;99.90;;;;;;5036222;28;20052;-78
2023/10/08 07:51:24;;;;;;;11.65;1.70;;;13.70;99.90;;;;;;5035236;28;20087;-78
2023/10/08 07:53:55;;;;;;;7.10;1.25;;;13.70;99.90;;;;;;5036035;28;20128;-78
2023/10/08 07:56:24;;;;;;;10.35;1.40;;;13.80;99.90;;;;;;5036357;28;20048;-78
2023/10/08 07:58:51;;;;;;;10.38;1.30;;;13.80;99.90;;;;;;5036317;28;20050;-77
2023/10/08 08:01:17;;;;;;;7.47;1.33;;;13.80;99.90;;;;;;5036309;28;20046;-76
2023/10/08 08:03:44;;;;;;;13.77;2.25;;;13.80;99.90;;;;;;5034655;28;20041;-77
2023/10/08 08:06:10;;;;;;;8.45;1.83;;;13.80;99.90;;;;;;5036284;28;20038;-78
2023/10/08 08:08:38;;;;;;;8.95;1.45;;;13.80;99.90;;;;;;5034602;28;20516;-78
2023/10/08 08:11:11;;;;;;;11.93;1.52;;;13.80;99.90;;;;;;5035906;28;20045;-78
2023/10/08 08:13:39;;;;;;;7.70;1.40;;;13.80;99.90;;;;;;5034392;28;20045;-77
2023/10/08 08:16:29;;;;;;;9.10;1.90;;;13.90;99.90;;;;;;5034412;28;20120;-77
2023/10/08 08:18:59;;;;;;;11.32;1.45;;;13.90;99.90;;;;;;5034712;28;20049;-77
2023/10/08 08:21:25;;;;;;;11.60;1.30;;;13.90;99.90;;;;;;5035815;28;20107;-77
2023/10/08 08:23:52;;;;;;;13.27;1.30;;;14.00;99.90;;;;;;5034544;28;20049;-77
2023/10/08 08:26:27;;;;;;;8.55;1.02;;;14.00;99.90;;;;;;5035621;28;20117;-77
2023/10/08 08:28:54;;;;;;;11.20;1.38;;;14.00;99.90;;;;;;5035660;28;20079;-77
2023/10/08 08:31:20;;;;;;;4.30;1.10;;;14.00;99.90;;;;;;5034407;28;20428;-77
2023/10/08 08:33:52;;;;;;;11.20;1.75;;;14.00;99.90;;;;;;5034196;28;20088;-77
2023/10/08 08:36:22;;;;;;;9.10;1.25;;;14.10;99.90;;;;;;5035404;28;20128;-77
2023/10/08 08:38:51;;;;;;;11.50;2.00;;;14.10;99.90;;;;;;5033760;28;20132;-77
2023/10/08 08:41:20;;;;;;;6.88;1.15;;;14.10;99.90;;;;;;5033887;28;20050;-77
2023/10/08 08:43:59;;;;;;;10.25;1.85;;;14.20;99.90;;;;;;5035145;28;20500;-77
2023/10/08 08:46:31;;;;;;;6.97;1.48;;;14.20;99.90;;;;;;5033935;28;20124;-77
2023/10/08 08:49:01;;;;;;;9.73;1.17;;;14.30;99.90;;;;;;5034138;28;20057;-76
2023/10/08 08:51:29;;;;;;;10.05;1.23;;;14.30;99.90;;;;;;5034983;28;20072;-76
2023/10/08 08:53:55;;;;;;;6.60;1.40;;;14.30;99.90;;;;;;5033867;28;20046;-77
2023/10/08 08:56:22;;;;;;;12.65;1.60;;;14.40;99.90;;;;;;5034000;28;20124;-76
2023/10/08 08:58:49;;;;;;;7.15;2.30;;;14.40;99.90;;;;;;5035006;28;20060;-76
2023/10/08 09:01:17;;;;;;;7.93;1.83;;;14.50;99.90;;;;;;5033830;28;20049;-76
2023/10/08 09:03:43;;;;;;;11.60;1.75;;;14.50;99.90;;;;;;5034853;28;20045;-76
2023/10/08 09:06:09;;;;;;;7.25;1.30;;;14.60;99.90;;;;;;5033413;28;20045;-77
2023/10/08 09:08:36;;;;;;;9.00;1.30;;;14.60;99.90;;;;;;5033686;28;20053;-76
2023/10/08 09:11:04;;;;;;;6.28;1.05;;;14.60;99.90;;;;;;5034685;28;20046;-76
2023/10/08 09:13:31;;;;;;;8.18;1.63;;;14.60;99.90;;;;;;5033360;28;20412;-77
2023/10/08 09:16:17;;;;;;;9.05;1.65;;;14.70;99.90;;;;;;5033287;28;20504;-76
2023/10/08 09:18:48;;;;;;;9.98;1.27;;;14.90;99.90;;;;;;5032947;28;20065;-76
2023/10/08 09:21:19;;;;;;;10.10;1.60;;;15.00;99.90;;;;;;5034398;28;20057;-75
2023/10/08 09:23:54;;;;;;;7.03;1.20;;;15.10;99.90;;;;;;5033422;28;20128;-75
2023/10/08 09:26:29;;;;;;;13.55;2.20;;;15.20;99.90;;;;;;5033447;28;20053;-75
2023/10/08 09:28:54;;;;;;;14.00;1.50;;;15.10;99.90;;;;;;5033122;28;20056;-75
2023/10/08 09:31:23;;;;;;;9.30;2.50;;;15.20;99.90;;;;;;5037230;28;20044;-76
2023/10/08 09:33:56;;;;;;;10.27;1.48;;;15.20;99.90;;;;;;5054085;28;20049;-76
2023/10/08 09:36:31;;;;;;;8.32;1.20;;;15.30;99.90;;;;;;5054134;28;20063;-76
2023/10/08 09:39:04;;;;;;;9.15;1.33;;;15.30;99.90;;;;;;5053710;28;20554;-76
2023/10/08 09:41:32;;;;;;;9.73;1.55;;;15.30;99.90;;;;;;5053821;28;20084;-77
2023/10/08 09:44:00;;;;;;;7.18;1.02;;;15.40;99.90;;;;;;5052692;28;20088;-76
2023/10/08 09:46:35;;;;;;;9.63;1.30;;;15.30;99.90;;;;;;5052838;28;20045;-76
2023/10/08 09:49:01;;;;;;;7.90;2.08;;;15.40;99.90;;;;;;5054035;28;20052;-76
2023/10/08 09:51:31;;;;;;;10.32;1.15;;;15.30;99.90;;;;;;5052035;28;20037;-76
2023/10/08 09:54:18;;;;;;;17.33;1.77;;;15.40;99.90;;;;;;5053801;28;20083;-76
2023/10/08 09:56:44;;;;;;;13.25;1.40;;;15.30;99.90;;;;;;5052430;28;20191;-77
2023/10/08 09:59:11;;;;;;;8.18;1.88;;;15.40;99.90;;;;;;5052562;28;20076;-76
2023/10/08 10:01:38;;;;;;;9.25;1.33;;;15.40;99.90;;;;;;5053355;28;20052;-76
2023/10/08 10:04:23;;;;;;;10.57;1.17;;;15.30;99.90;;;;;;5053859;28;20045;-76
2023/10/08 10:06:50;;;;;;;6.90;1.17;;;15.40;99.90;;;;;;5052259;28;20048;-76
2023/10/08 10:09:21;;;;;;;14.63;1.80;;;15.50;99.90;;;;;;5052121;28;20051;-76
2023/10/08 10:11:52;;;;;;;8.25;1.00;;;15.50;99.90;;;;;;5052335;28;20488;-76
2023/10/08 10:14:22;;;;;;;8.02;1.48;;;15.60;99.90;;;;;;5053431;28;20037;-77
2023/10/08 10:17:20;;;;;;;7.75;1.40;;;15.70;99.90;;;;;;5052278;28;20049;-80
2023/10/08 10:19:59;;;;;;;6.65;1.27;;;15.70;99.90;;;;;;5052384;28;20122;-75
2023/10/08 10:22:34;;;;;;;11.85;1.13;;;15.70;99.90;;;;;;5053256;28;20044;-75
2023/10/08 10:25:14;;;;;;;9.05;1.45;;;15.80;99.90;;;;;;5053367;28;20044;-76
2023/10/08 10:27:42;;;;;;;10.75;1.35;;;15.90;99.90;;;;;;5051861;28;20171;-76
2023/10/08 10:30:08;;;;;;;9.77;1.25;;;15.70;99.90;;;;;;5052141;28;20098;-76
2023/10/08 10:32:35;;;;;;;14.13;1.38;;;15.60;99.90;;;;;;5052017;28;20136;-77
2023/10/08 10:35:05;;;;;;;10.00;1.60;;;15.60;99.90;;;;;;5053182;28;20049;-76
2023/10/08 10:37:41;;;;;;;10.88;1.63;;;15.60;99.90;;;;;;5051765;28;20051;-76
2023/10/08 10:40:14;;;;;;;8.38;1.40;;;15.60;99.90;;;;;;5053045;28;20057;-76
2023/10/08 10:42:42;;;;;;;12.85;1.60;;;15.60;99.90;;;;;;5053376;28;20056;-76
2023/10/08 10:48:10;;;;;;;6.25;0.98;;;15.70;99.90;;;;;;5051924;28;20064;-77
2023/10/08 10:50:48;;;;;;;7.80;1.17;;;15.70;99.90;;;;;;5052362;28;20059;-76
2023/10/08 10:53:17;;;;;;;9.57;1.08;;;15.80;99.90;;;;;;5052998;28;20040;-77
2023/10/08 10:55:58;;;;;;;11.45;1.08;;;15.80;99.90;;;;;;5051647;28;20057;-76
2023/10/08 10:58:25;;;;;;;6.93;1.20;;;15.80;99.90;;;;;;5051995;28;20048;-76
2023/10/08 11:00:57;;;;;;;10.15;1.35;;;16.00;99.90;;;;;;5053043;28;20041;-76
2023/10/08 11:03:23;;;;;;;6.45;0.98;;;16.00;99.90;;;;;;5053765;28;20052;-76
2023/10/08 11:05:59;;;;;;;12.13;1.80;;;16.00;99.90;;;;;;5056951;28;20049;-77
2023/10/08 11:08:26;;;;;;;9.45;1.05;;;16.00;99.90;;;;;;5056837;28;20519;-76
2023/10/08 11:10:53;;;;;;;8.95;1.35;;;16.10;99.90;;;;;;5055843;28;20489;-77
2023/10/08 11:13:37;;;;;;;10.98;1.00;;;16.20;99.90;;;;;;5056551;28;20045;-76
2023/10/08 11:16:04;;;;;;;12.50;1.85;;;16.10;99.90;;;;;;5056808;28;20091;-76
2023/10/08 11:18:30;;;;;;;10.25;1.52;;;15.90;99.90;;;;;;5055402;28;20049;-77
2023/10/08 11:21:15;;;;;;;10.40;1.10;;;15.80;99.90;;;;;;5056775;28;20048;-76
2023/10/08 11:24:24;;;;;;;8.80;1.35;;;16.00;99.90;;;;;;5056468;28;20533;-77
2023/10/08 11:26:54;;;;;;;8.27;1.20;;;16.00;99.90;;;;;;5054516;28;20060;-76
2023/10/08 11:29:25;;;;;;;7.85;1.35;;;16.00;99.90;;;;;;5055306;28;20401;-77
2023/10/08 11:31:51;;;;;;;6.28;1.15;;;16.10;99.90;;;;;;5055472;28;20048;-77
2023/10/08 11:34:23;;;;;;;8.85;1.15;;;16.00;99.90;;;;;;5055125;28;20109;-77
2023/10/08 11:36:55;;;;;;;9.10;1.30;;;16.00;99.90;;;;;;5055470;28;20056;-77
2023/10/08 11:39:23;;;;;;;10.30;1.50;;;16.00;99.90;;;;;;5055148;28;20412;-78
2023/10/08 11:41:56;;;;;;;8.98;1.40;;;16.00;99.90;;;;;;5055194;28;20143;-77
2023/10/08 11:44:23;;;;;;;9.32;1.38;;;15.90;99.90;;;;;;5054957;28;20060;-76
2023/10/08 11:46:52;;;;;;;10.15;1.80;;;16.00;99.90;;;;;;5056401;28;20041;-76
2023/10/08 11:49:18;;;;;;;7.88;1.25;;;16.00;99.90;;;;;;5055264;28;20056;-77
2023/10/08 11:51:48;;;;;;;10.27;1.20;;;16.10;99.90;;;;;;5055077;28;20047;-77
2023/10/08 11:54:14;;;;;;;7.90;1.23;;;16.20;99.90;;;;;;5056051;28;20126;-76
2023/10/08 11:56:41;;;;;;;8.25;1.55;;;16.30;99.90;;;;;;5056387;28;20090;-76
2023/10/08 11:59:09;;;;;;;7.78;1.23;;;16.40;99.90;;;;;;5054976;28;20048;-77
2023/10/08 12:01:37;;;;;;;7.30;1.50;;;16.40;99.90;;;;;;5056036;28;20138;-77
2023/10/08 12:04:04;;;;;;;5.80;0.98;;;16.50;99.90;;;;;;5054445;28;20405;-77
2023/10/08 12:06:30;;;;;;;7.18;1.20;;;16.60;99.90;;;;;;5055755;28;20081;-77
2023/10/08 12:08:59;;;;;;;8.23;1.20;;;16.50;99.90;;;;;;5054725;28;20049;-77
2023/10/08 12:11:31;;;;;;;9.98;1.23;;;16.50;99.90;;;;;;5055555;28;20542;-76
2023/10/08 12:14:00;;;;;;;7.63;1.10;;;16.60;99.90;;;;;;5054281;28;20158;-77
2023/10/08 12:16:29;;;;;;;12.82;1.60;;;16.60;99.90;;;;;;5053760;28;20476;-77
2023/10/08 12:18:59;;;;;;;9.45;1.10;;;16.60;99.90;;;;;;5054496;28;20095;-77
2023/10/08 12:21:26;;;;;;;7.22;1.05;;;16.60;99.90;;;;;;5054456;28;20064;-76
2023/10/08 12:23:52;;;;;;;13.75;1.63;;;16.70;99.90;;;;;;5054072;28;20397;-77
2023/10/08 12:26:19;;;;;;;11.10;1.17;;;16.60;99.90;;;;;;5054099;28;20103;-76
2023/10/08 12:28:48;;;;;;;8.77;2.22;;;16.60;99.90;;;;;;5054483;28;20051;-77
2023/10/08 12:31:15;;;;;;;9.00;1.35;;;16.60;99.90;;;;;;5054403;28;20110;-78
2023/10/08 12:33:43;;;;;;;16.73;1.83;;;16.60;99.90;;;;;;5054332;28;20059;-77
2023/10/08 12:36:10;;;;;;;7.90;1.58;;;16.70;99.90;;;;;;5055342;28;20033;-77
2023/10/08 12:38:37;;;;;;;7.47;1.10;;;16.70;99.90;;;;;;5055351;28;20039;-76
2023/10/08 12:41:11;;;;;;;11.00;1.55;;;16.80;99.90;;;;;;5053880;28;20056;-77
2023/10/08 12:43:38;;;;;;;9.90;1.63;;;16.80;99.90;;;;;;5055029;28;20551;-77
2023/10/08 12:46:10;;;;;;;6.68;2.55;;;16.70;99.90;;;;;;5054108;28;20061;-76
2023/10/08 12:48:36;;;;;;;8.90;2.17;;;16.70;99.90;;;;;;5054103;28;20049;-77
2023/10/08 12:51:05;;;;;;;11.15;1.65;;;16.70;99.90;;;;;;5055262;28;20341;-77
2023/10/08 12:53:36;;;;;;;6.85;1.15;;;16.60;99.90;;;;;;5053740;28;20055;-77
2023/10/08 12:56:07;;;;;;;9.05;2.00;;;16.60;99.90;;;;;;5053989;28;20057;-77
2023/10/08 12:58:48;;;;;;;7.30;1.50;;;16.60;99.90;;;;;;5054862;28;20496;-77
2023/10/08 13:01:17;;;;;;;7.38;1.58;;;16.50;99.90;;;;;;5053579;28;20052;-77
2023/10/08 13:03:47;;;;;;;7.18;1.20;;;16.40;99.90;;;;;;5053357;28;20061;-77
2023/10/08 13:06:28;;;;;;;9.70;1.05;;;16.40;99.90;;;;;;5055380;28;20048;-77
2023/10/08 13:08:58;;;;;;;8.93;1.30;;;16.30;99.90;;;;;;5053397;28;20366;-77
2023/10/08 13:11:26;;;;;;;7.45;1.20;;;16.30;99.90;;;;;;5053446;28;20511;-77
2023/10/08 13:13:56;;;;;;;8.43;1.45;;;16.30;99.90;;;;;;5053485;28;20056;-77
2023/10/08 13:16:23;;;;;;;8.98;1.60;;;16.40;99.90;;;;;;5054496;28;20560;-77
2023/10/08 13:18:50;;;;;;;8.15;1.33;;;16.40;99.90;;;;;;5053301;28;20045;-77
2023/10/08 13:21:15;;;;;;;7.15;1.42;;;16.40;99.90;;;;;;5053330;28;20052;-77
2023/10/08 13:23:42;;;;;;;6.30;1.30;;;16.40;99.90;;;;;;5054609;28;20059;-77
2023/10/08 13:26:08;;;;;;;9.82;1.23;;;16.50;99.90;;;;;;5052367;28;20041;-77
2023/10/08 13:28:37;;;;;;;9.27;1.42;;;16.60;99.90;;;;;;5054445;28;20037;-77
2023/10/08 13:31:09;;;;;;;8.52;1.30;;;16.60;99.90;;;;;;5053032;28;20114;-77
2023/10/08 13:33:38;;;;;;;;;;;16.40;99.90;;;;;;5053351;28;20094;-77
2023/10/08 13:36:08;;;;;;;9.55;1.50;;;16.50;99.90;;;;;;5053021;28;19921;-77
2023/10/08 13:38:37;;;;;;;12.20;1.67;;;16.50;99.90;;;;;;5052917;28;20052;-77
2023/10/08 13:41:06;;;;;;;9.10;1.45;;;16.40;99.90;;;;;;5053047;28;20052;-77
2023/10/08 13:43:36;;;;;;;8.60;1.50;;;16.30;99.90;;;;;;5054127;28;20132;-79
2023/10/08 13:46:04;;;;;;;8.57;1.30;;;16.40;99.90;;;;;;5052794;28;20045;-77
2023/10/08 13:48:36;;;;;;;11.98;1.55;;;16.30;99.90;;;;;;5053063;28;20068;-77
2023/10/08 13:51:10;;;;;;;8.35;1.27;;;16.30;99.90;;;;;;5053966;28;20048;-77
2023/10/08 13:53:38;;;;;;;9.40;1.63;;;16.20;99.90;;;;;;5054019;28;20041;-77
2023/10/08 13:56:05;;;;;;;10.82;1.42;;;16.20;99.90;;;;;;5053818;28;20059;-78
2023/10/08 13:58:35;;;;;;;4.70;1.10;;;16.20;99.90;;;;;;5052471;28;20538;-76
2023/10/08 14:01:01;;;;;;;9.93;1.33;;;16.20;99.90;;;;;;5053797;28;20055;-76
2023/10/08 14:03:30;;;;;;;5.40;1.25;;;16.20;99.90;;;;;;5052372;28;20045;-77
2023/10/08 14:06:01;;;;;;;9.88;1.85;;;16.10;99.90;;;;;;5053558;28;20487;-77
2023/10/08 14:08:28;;;;;;;11.35;1.33;;;16.10;99.90;;;;;;5052383;28;20128;-76
2023/10/08 14:11:00;;;;;;;7.80;1.90;;;16.00;99.90;;;;;;5052301;28;20037;-77
2023/10/08 14:13:27;;;;;;;13.32;2.47;;;16.00;99.90;;;;;;5052311;28;20099;-77
2023/10/08 14:15:55;;;;;;;11.32;2.22;;;15.90;99.90;;;;;;5052087;28;20041;-77
2023/10/08 14:18:28;;;;;;;8.73;1.55;;;15.90;99.90;;;;;;5053470;28;20515;-78
2023/10/08 14:20:54;;;;;;;9.38;1.45;;;15.90;99.90;;;;;;5052448;28;20091;-78